Time;durP1;ratioP1;P1;durP2;ratioP2;P2;SDS_P1;SDS_P2;PMS_P1;PMS_P2;Temp;Humidity;BMP_temperature;BMP_pressure;BME280_temperature;BME280_humidity;BME280_pressure;Samples;Min_cycle;Max_cycle;Signal;HPM_P1;HPM_P2
2021/10/09 00:01:06;;;;;;;;;24.00;17.00;;;;;;;;5084475;28;17259;-74
2021/10/09 00:03:31;;;;;;;;;16.33;16.00;;;;;;;;5086970;27;16131;-75
2021/10/09 00:05:57;;;;;;;;;18.00;15.33;;;;;;;;5087200;28;11530;-74
2021/10/09 00:08:22;;;;;;;;;17.00;14.00;;;;;;;;5091521;27;22917;-75
2021/10/09 00:10:47;;;;;;;;;12.33;12.00;;;;;;;;5085312;28;24960;-74
2021/10/09 00:13:13;;;;;;;;;14.50;12.25;;;;;;;;5085726;28;18811;-74
2021/10/09 00:15:38;;;;;;;;;18.25;14.00;;;;;;;;5082828;28;17231;-75
2021/10/09 00:18:04;;;;;;;;;19.75;12.00;;;;;;;;5089973;28;8832;-74
2021/10/09 00:20:29;;;;;;;;;18.75;16.25;;;;;;;;5080749;28;23673;-75
2021/10/09 00:22:54;;;;;;;;;16.25;14.50;;;;;;;;5092681;28;11248;-75
2021/10/09 00:25:20;;;;;;;;;17.75;14.75;;;;;;;;5084826;28;10704;-74
2021/10/09 00:27:46;;;;;;;;;17.00;14.75;;;;;;;;5081871;28;17271;-74
2021/10/09 00:30:11;;;;;;;;;18.75;13.25;;;;;;;;5084524;27;8807;-74
2021/10/09 00:32:36;;;;;;;;;19.50;14.75;;;;;;;;5083478;27;17157;-74
2021/10/09 00:35:02;;;;;;;;;16.33;15.00;;;;;;;;5085403;28;27419;-74
2021/10/09 00:37:27;;;;;;;;;14.50;14.50;;;;;;;;5083264;28;17335;-74
2021/10/09 00:39:52;;;;;;;;;14.00;12.50;;;;;;;;5085179;28;17236;-74
2021/10/09 00:42:18;;;;;;;;;12.00;11.00;;;;;;;;5084459;28;8815;-74
2021/10/09 00:44:43;;;;;;;;;14.00;12.00;;;;;;;;5082955;28;11527;-74
2021/10/09 00:47:08;;;;;;;;;17.33;16.67;;;;;;;;5085719;28;15876;-75
2021/10/09 00:49:34;;;;;;;;;20.33;16.00;;;;;;;;5096860;27;15863;-75
2021/10/09 00:52:02;;;;;;;;;22.00;18.00;;;;;;;;5081998;28;16002;-74
2021/10/09 00:54:28;;;;;;;;;18.50;13.50;;;;;;;;5092900;27;16975;-74
2021/10/09 00:56:55;;;;;;;;;17.75;12.25;;;;;;;;5090859;27;15725;-75
2021/10/09 00:59:24;;;;;;;;;18.50;13.75;;;;;;;;5091260;28;17888;-74
2021/10/09 01:01:50;;;;;;;;;17.00;12.50;;;;;;;;5089102;27;15799;-75
2021/10/09 01:04:17;;;;;;;;;17.00;13.00;;;;;;;;5085611;27;19014;-74
2021/10/09 01:06:42;;;;;;;;;20.25;15.50;;;;;;;;5088209;28;17001;-75
2021/10/09 01:09:07;;;;;;;;;13.00;11.00;;;;;;;;5091943;28;8889;-75
2021/10/09 01:11:33;;;;;;;;;14.67;14.67;;;;;;;;5088572;28;15903;-75
2021/10/09 01:13:58;;;;;;;;;24.00;18.50;;;;;;;;5086594;28;16882;-74
2021/10/09 01:16:24;;;;;;;;;18.50;15.25;;;;;;;;5089419;28;16094;-74
2021/10/09 01:18:50;;;;;;;;;17.00;15.50;;;;;;;;5086769;27;10525;-74
2021/10/09 01:21:16;;;;;;;;;17.50;12.75;;;;;;;;5091918;28;8772;-75
2021/10/09 01:23:41;;;;;;;;;18.75;15.50;;;;;;;;5086795;28;17643;-75
2021/10/09 01:26:07;;;;;;;;;14.33;14.33;;;;;;;;5087897;28;15692;-75
2021/10/09 01:28:32;;;;;;;;;19.25;16.50;;;;;;;;5085325;28;25034;-74
2021/10/09 01:30:57;;;;;;;;;21.67;17.00;;;;;;;;5085315;28;16155;-74
2021/10/09 01:33:22;;;;;;;;;16.67;15.00;;;;;;;;5091533;28;10457;-74
2021/10/09 01:35:49;;;;;;;;;20.33;18.33;;;;;;;;5087523;28;19779;-74
2021/10/09 01:38:15;;;;;;;;;19.25;16.25;;;;;;;;5088945;28;16223;-75
2021/10/09 01:40:40;;;;;;;;;16.50;15.50;;;;;;;;5095300;28;15647;-75
2021/10/09 01:43:09;;;;;;;;;16.00;11.67;;;;;;;;5090533;28;16290;-75
2021/10/09 01:45:35;;;;;;;;;19.25;16.50;;;;;;;;5087151;27;20699;-75
2021/10/09 01:48:00;;;;;;;;;19.50;13.25;;;;;;;;5087742;27;14636;-75
2021/10/09 01:50:25;;;;;;;;;23.25;16.00;;;;;;;;5085823;28;9598;-75
2021/10/09 01:52:50;;;;;;;;;22.33;17.33;;;;;;;;5086188;28;26622;-74
2021/10/09 01:55:15;;;;;;;;;16.00;16.00;;;;;;;;5087554;27;17025;-74
2021/10/09 01:57:41;;;;;;;;;21.33;17.00;;;;;;;;5081241;27;15963;-74
2021/10/09 02:00:06;;;;;;;;;17.33;13.67;;;;;;;;5087956;28;11561;-74
2021/10/09 02:02:32;;;;;;;;;20.75;17.25;;;;;;;;5089025;27;10314;-75
2021/10/09 02:04:57;;;;;;;;;16.75;15.50;;;;;;;;5087166;28;20789;-74
2021/10/09 02:07:24;;;;;;;;;18.00;15.00;;;;;;;;5086369;27;21033;-75
2021/10/09 02:09:49;;;;;;;;;15.50;14.25;;;;;;;;5086594;28;17146;-74
2021/10/09 02:12:15;;;;;;;;;22.00;21.25;;;;;;;;5085117;28;8957;-74
2021/10/09 02:14:45;;;;;;;;;25.50;18.25;;;;;;;;5087962;28;17150;-74
2021/10/09 02:27:56;;;;;;;;;22.75;18.00;;;;;;;;5087334;28;17774;-75
2021/10/09 02:30:21;;;;;;;;;17.25;17.00;;;;;;;;5088717;28;8787;-75
2021/10/09 02:32:46;;;;;;;;;19.25;16.00;;;;;;;;5087302;27;16711;-74
2021/10/09 02:35:11;;;;;;;;;25.25;17.00;;;;;;;;5093331;28;15885;-74
2021/10/09 02:37:37;;;;;;;;;17.67;17.00;;;;;;;;5092285;27;13273;-74
2021/10/09 02:40:02;;;;;;;;;15.67;14.00;;;;;;;;5085956;27;25052;-74
2021/10/09 02:42:27;;;;;;;;;17.25;16.25;;;;;;;;5083688;28;15474;-74
2021/10/09 02:44:52;;;;;;;;;23.00;17.50;;;;;;;;5088916;28;15813;-74
2021/10/09 02:47:18;;;;;;;;;21.33;17.00;;;;;;;;5087409;28;16712;-74
2021/10/09 02:49:43;;;;;;;;;21.75;19.75;;;;;;;;5089294;28;23481;-74
2021/10/09 02:52:08;;;;;;;;;17.33;16.33;;;;;;;;5097263;28;16838;-74
2021/10/09 02:54:33;;;;;;;;;25.33;16.67;;;;;;;;5087044;28;17100;-74
2021/10/09 02:56:58;;;;;;;;;20.67;17.00;;;;;;;;5101942;28;11500;-74
2021/10/09 02:59:24;;;;;;;;;21.67;16.67;;;;;;;;5086897;28;11547;-74
2021/10/09 03:01:49;;;;;;;;;25.67;21.00;;;;;;;;5085062;28;19463;-74
2021/10/09 03:04:14;;;;;;;;;24.33;16.33;;;;;;;;5083782;28;25954;-74
2021/10/09 03:06:39;;;;;;;;;22.75;18.00;;;;;;;;5090306;28;22969;-74
2021/10/09 03:09:05;;;;;;;;;25.25;21.00;;;;;;;;5083386;28;8815;-74
2021/10/09 03:11:30;;;;;;;;;25.33;19.67;;;;;;;;5092762;28;16881;-74
2021/10/09 03:13:55;;;;;;;;;20.00;16.50;;;;;;;;5092997;27;20015;-74
2021/10/09 03:16:20;;;;;;;;;18.25;18.00;;;;;;;;5082602;28;20649;-74
2021/10/09 03:18:45;;;;;;;;;27.00;26.00;;;;;;;;5076901;28;22454;-74
2021/10/09 03:21:11;;;;;;;;;25.00;19.67;;;;;;;;5087589;28;8826;-75
2021/10/09 03:23:36;;;;;;;;;25.67;22.00;;;;;;;;5086627;28;24421;-74
2021/10/09 03:26:04;;;;;;;;;22.00;19.33;;;;;;;;5086436;27;16012;-74
2021/10/09 03:28:29;;;;;;;;;29.75;24.75;;;;;;;;5080614;28;16892;-74
2021/10/09 03:30:54;;;;;;;;;22.00;18.33;;;;;;;;5084131;28;18966;-75
2021/10/09 03:33:19;;;;;;;;;19.00;17.67;;;;;;;;5090061;28;11929;-75
2021/10/09 03:35:46;;;;;;;;;27.25;19.75;;;;;;;;5089267;28;17199;-74
2021/10/09 03:38:11;;;;;;;;;20.75;20.75;;;;;;;;5087535;28;13566;-75
2021/10/09 03:40:37;;;;;;;;;22.00;19.25;;;;;;;;5092512;27;15932;-75
2021/10/09 03:43:12;;;;;;;;;23.50;18.25;;;;;;;;5080879;28;11770;-75
2021/10/09 03:45:51;;;;;;;;;25.25;21.00;;;;;;;;5081791;27;17220;-74
2021/10/09 03:48:27;;;;;;;;;21.50;18.75;;;;;;;;5087140;27;8807;-74
2021/10/09 03:53:33;;;;;;;;;25.25;23.00;;;;;;;;5087196;27;15618;-74
2021/10/09 03:55:58;;;;;;;;;31.00;23.25;;;;;;;;5087051;28;16708;-74
2021/10/09 03:58:24;;;;;;;;;24.33;22.67;;;;;;;;5085087;28;16456;-74
2021/10/09 04:00:49;;;;;;;;;25.25;23.00;;;;;;;;5096141;28;16398;-75
2021/10/09 04:03:14;;;;;;;;;28.75;25.50;;;;;;;;5084834;28;8990;-74
2021/10/09 04:05:39;;;;;;;;;31.67;22.33;;;;;;;;5085031;28;15734;-74
2021/10/09 04:08:06;;;;;;;;;22.75;22.00;;;;;;;;5091812;28;11526;-74
2021/10/09 04:10:32;;;;;;;;;31.25;22.25;;;;;;;;5096650;27;14472;-76
2021/10/09 04:12:57;;;;;;;;;27.25;20.50;;;;;;;;5084067;28;18120;-74
2021/10/09 04:15:22;;;;;;;;;25.67;23.67;;;;;;;;5093161;28;8834;-74
2021/10/09 04:17:47;;;;;;;;;25.00;21.33;;;;;;;;5083364;28;15677;-75
2021/10/09 04:20:12;;;;;;;;;23.67;22.33;;;;;;;;5086080;28;16379;-74
2021/10/09 04:22:38;;;;;;;;;28.00;26.75;;;;;;;;5087480;28;24570;-74
2021/10/09 04:25:06;;;;;;;;;30.67;23.00;;;;;;;;5078900;27;15597;-74
2021/10/09 04:27:31;;;;;;;;;27.75;24.50;;;;;;;;5083867;28;18436;-74
2021/10/09 04:29:56;;;;;;;;;26.33;20.00;;;;;;;;5101437;28;8863;-74
2021/10/09 04:32:21;;;;;;;;;31.00;29.00;;;;;;;;5089827;28;16117;-74
2021/10/09 04:34:46;;;;;;;;;28.67;23.00;;;;;;;;5090671;27;15817;-74
2021/10/09 04:37:11;;;;;;;;;32.67;26.00;;;;;;;;5093028;27;22495;-74
2021/10/09 04:39:37;;;;;;;;;39.33;25.67;;;;;;;;5094719;27;16813;-74
2021/10/09 04:42:02;;;;;;;;;25.00;21.33;;;;;;;;5086652;28;11032;-75
2021/10/09 04:44:28;;;;;;;;;32.00;27.25;;;;;;;;5087500;28;16002;-75
2021/10/09 04:46:53;;;;;;;;;28.00;21.75;;;;;;;;5088115;28;25021;-77
2021/10/09 04:54:29;;;;;;;;;32.50;23.25;;;;;;;;5265899;22;17344;-76
2021/10/09 04:56:54;;;;;;;;;27.00;25.33;;;;;;;;5077464;28;16489;-75
2021/10/09 04:59:19;;;;;;;;;28.00;25.67;;;;;;;;5092432;27;16116;-75
2021/10/09 05:01:44;;;;;;;;;24.67;20.33;;;;;;;;5094412;27;20421;-76
2021/10/09 05:04:09;;;;;;;;;25.25;23.25;;;;;;;;5096011;28;24808;-77
2021/10/09 05:06:35;;;;;;;;;27.25;23.50;;;;;;;;5092106;28;9587;-77
2021/10/09 05:09:00;;;;;;;;;32.00;27.00;;;;;;;;5091612;27;9590;-76
2021/10/09 05:11:25;;;;;;;;;33.67;24.33;;;;;;;;5098501;27;16355;-77
2021/10/09 05:13:50;;;;;;;;;27.67;25.00;;;;;;;;5073911;28;17537;-76
2021/10/09 05:16:16;;;;;;;;;29.33;24.67;;;;;;;;5091901;28;12653;-76
2021/10/09 05:18:41;;;;;;;;;35.67;22.33;;;;;;;;5097471;28;17641;-77
2021/10/09 05:21:07;;;;;;;;;30.50;24.50;;;;;;;;5093761;28;10988;-77
2021/10/09 05:23:32;;;;;;;;;31.00;25.75;;;;;;;;5090062;28;15784;-76
2021/10/09 05:25:58;;;;;;;;;31.75;28.00;;;;;;;;5090203;28;10097;-76
2021/10/09 05:28:30;;;;;;;;;40.00;27.25;;;;;;;;5093861;28;19993;-75
2021/10/09 05:30:58;;;;;;;;;29.00;23.75;;;;;;;;5096789;28;16027;-76
2021/10/09 05:35:51;;;;;;;;;27.75;26.25;;;;;;;;5094239;28;15243;-74
2021/10/09 05:38:16;;;;;;;;;36.33;27.33;;;;;;;;5094417;28;17140;-75
2021/10/09 05:40:42;;;;;;;;;41.00;27.67;;;;;;;;5090323;28;15923;-74
2021/10/09 05:43:07;;;;;;;;;38.67;29.33;;;;;;;;5088452;27;17782;-75
2021/10/09 05:45:33;;;;;;;;;35.00;27.25;;;;;;;;5088369;28;16138;-75
2021/10/09 05:47:59;;;;;;;;;35.50;27.75;;;;;;;;5097153;28;9049;-75
2021/10/09 05:50:29;;;;;;;;;34.75;28.50;;;;;;;;5091266;28;17250;-76
2021/10/09 05:55:31;;;;;;;;;35.50;25.50;;;;;;;;5082668;28;15022;-76
2021/10/09 05:58:07;;;;;;;;;31.00;26.50;;;;;;;;5081046;28;12399;-75
2021/10/09 06:49:25;;;;;;;;;34.00;30.50;;;;;;;;5065702;28;17193;-76
2021/10/09 06:59:43;;;;;;;;;32.50;27.75;;;;;;;;5068692;28;14833;-75
2021/10/09 07:02:08;;;;;;;;;38.00;33.67;;;;;;;;5070210;28;16690;-76
2021/10/09 07:04:34;;;;;;;;;40.00;32.00;;;;;;;;5066385;28;17878;-75
2021/10/09 07:07:03;;;;;;;;;30.25;27.75;;;;;;;;5061370;28;13759;-75
2021/10/09 07:09:29;;;;;;;;;34.50;31.00;;;;;;;;5067854;28;25390;-76
2021/10/09 07:13:46;;;;;;;;;42.25;31.75;;;;;;;;5120962;27;18793;-76
2021/10/09 07:16:11;;;;;;;;;45.50;32.00;;;;;;;;5117860;27;24641;-76
2021/10/09 07:18:37;;;;;;;;;33.00;29.33;;;;;;;;5118444;27;15235;-75
2021/10/09 07:21:02;;;;;;;;;41.67;33.33;;;;;;;;5122375;27;11568;-76
2021/10/09 07:23:27;;;;;;;;;36.25;28.50;;;;;;;;5117267;27;18035;-76
2021/10/09 07:28:34;;;;;;;;;41.25;33.00;;;;;;;;5118461;27;15974;-75
2021/10/09 07:30:59;;;;;;;;;40.25;33.00;;;;;;;;5132211;27;10601;-77
2021/10/09 07:33:24;;;;;;;;;44.00;34.00;;;;;;;;5121118;27;8839;-76
2021/10/09 07:35:50;;;;;;;;;40.33;34.00;;;;;;;;5126439;27;16085;-75
2021/10/09 07:38:15;;;;;;;;;49.33;33.67;;;;;;;;5124319;27;17458;-76
2021/10/09 07:40:40;;;;;;;;;42.33;34.67;;;;;;;;5125144;27;16967;-75
2021/10/09 07:43:05;;;;;;;;;46.75;31.50;;;;;;;;5123679;27;17614;-74
2021/10/09 07:45:30;;;;;;;;;36.67;33.67;;;;;;;;5126291;27;27385;-76
2021/10/09 07:47:56;;;;;;;;;47.33;34.67;;;;;;;;5128731;27;11551;-75
2021/10/09 07:50:21;;;;;;;;;44.00;32.67;;;;;;;;5131914;27;19136;-76
2021/10/09 07:52:46;;;;;;;;;39.50;35.25;;;;;;;;5121657;27;17239;-75
2021/10/09 07:55:11;;;;;;;;;45.25;35.75;;;;;;;;5124692;27;14885;-76
2021/10/09 07:57:37;;;;;;;;;41.33;34.33;;;;;;;;5131152;27;22067;-76
2021/10/09 08:00:03;;;;;;;;;47.25;39.00;;;;;;;;5133538;27;11613;-75
2021/10/09 08:02:29;;;;;;;;;40.75;34.00;;;;;;;;5123645;27;22866;-76
2021/10/09 08:04:55;;;;;;;;;36.75;33.50;;;;;;;;5129089;27;16187;-76
2021/10/09 08:07:21;;;;;;;;;57.00;37.33;;;;;;;;5135724;27;20348;-76
2021/10/09 08:09:46;;;;;;;;;43.50;34.75;;;;;;;;5114083;27;21870;-76
2021/10/09 08:12:11;;;;;;;;;49.00;35.67;;;;;;;;5120341;27;8870;-76
2021/10/09 08:14:36;;;;;;;;;49.25;35.25;;;;;;;;5119317;27;17546;-76
2021/10/09 08:17:02;;;;;;;;;43.00;35.00;;;;;;;;5122007;27;9220;-76
2021/10/09 08:19:27;;;;;;;;;42.50;36.50;;;;;;;;5118259;27;11145;-76
2021/10/09 08:21:53;;;;;;;;;49.00;38.00;;;;;;;;5112629;27;16791;-76
2021/10/09 08:40:11;;;;;;;;;42.50;33.75;;;;;;;;5059858;28;15645;-77
2021/10/09 08:42:37;;;;;;;;;42.75;35.00;;;;;;;;5065393;28;17716;-78
2021/10/09 08:45:02;;;;;;;;;47.50;35.50;;;;;;;;5057664;28;8853;-76
2021/10/09 08:47:28;;;;;;;;;48.25;35.75;;;;;;;;5064449;28;11421;-76
2021/10/09 08:49:53;;;;;;;;;42.25;36.25;;;;;;;;5065327;28;14943;-76
2021/10/09 08:52:19;;;;;;;;;36.33;29.67;;;;;;;;5044318;28;22895;-77
2021/10/09 08:54:44;;;;;;;;;43.50;33.75;;;;;;;;5060338;28;20319;-77
2021/10/09 08:57:13;;;;;;;;;41.75;35.00;;;;;;;;5064699;28;8812;-76
2021/10/09 08:59:50;;;;;;;;;38.75;34.00;;;;;;;;5064041;28;15654;-76
2021/10/09 09:02:23;;;;;;;;;37.75;31.75;;;;;;;;5067307;28;19392;-76
2021/10/09 09:08:08;;;;;;;;;40.50;34.25;;;;;;;;5064573;28;21000;-76
2021/10/09 09:38:53;;;;;;;;;41.50;33.75;;;;;;;;5059506;28;17603;-76
2021/10/09 09:40:33;;;;;;;;;41.75;33.00;;;;;;;;5059925;28;10799;-77
2021/10/09 09:42:58;;;;;;;;;34.75;30.00;;;;;;;;5061368;28;15812;-77
2021/10/09 09:45:25;;;;;;;;;45.67;33.33;;;;;;;;5064717;28;9550;-77
2021/10/09 09:47:55;;;;;;;;;47.75;31.75;;;;;;;;5069941;28;29297;-77
2021/10/09 09:50:21;;;;;;;;;40.00;33.50;;;;;;;;5068419;28;16685;-77
2021/10/09 09:52:47;;;;;;;;;32.00;27.00;;;;;;;;5061245;28;13571;-75
2021/10/09 09:55:13;;;;;;;;;32.25;30.75;;;;;;;;5060447;28;10443;-76
2021/10/09 09:57:39;;;;;;;;;39.00;30.25;;;;;;;;5059203;28;17452;-76
2021/10/09 10:00:05;;;;;;;;;36.75;29.50;;;;;;;;5060028;28;9018;-76
2021/10/09 10:02:33;;;;;;;;;38.50;29.25;;;;;;;;5060976;28;17309;-76
2021/10/09 10:05:02;;;;;;;;;20.75;19.00;;;;;;;;5059775;28;17201;-75
2021/10/09 10:07:27;;;;;;;;;43.00;33.50;;;;;;;;5057072;28;16571;-76
2021/10/09 10:09:53;;;;;;;;;33.75;30.00;;;;;;;;5057784;28;29292;-76
2021/10/09 10:12:18;;;;;;;;;29.33;26.67;;;;;;;;5067387;28;8832;-76
2021/10/09 10:14:46;;;;;;;;;34.25;30.50;;;;;;;;5058939;28;23594;-75
2021/10/09 10:17:11;;;;;;;;;31.75;28.50;;;;;;;;5064927;28;11079;-77
2021/10/09 10:19:48;;;;;;;;;32.67;27.67;;;;;;;;5063098;28;17406;-78
2021/10/09 10:22:14;;;;;;;;;30.75;24.75;;;;;;;;5058543;28;10706;-78
2021/10/09 10:24:46;;;;;;;;;34.00;28.00;;;;;;;;5047344;28;16335;-76
2021/10/09 10:27:33;;;;;;;;;35.75;29.25;;;;;;;;5048027;28;9268;-74
2021/10/09 10:30:14;;;;;;;;;31.75;28.75;;;;;;;;5047484;28;9233;-76
2021/10/09 10:32:39;;;;;;;;;34.00;29.25;;;;;;;;5045078;28;20227;-77
2021/10/09 10:35:23;;;;;;;;;31.50;30.00;;;;;;;;5051345;28;9376;-76
2021/10/09 10:37:49;;;;;;;;;29.75;25.25;;;;;;;;5050556;28;17222;-77
2021/10/09 10:40:34;;;;;;;;;27.00;25.25;;;;;;;;5046332;28;12292;-76
2021/10/09 10:43:19;;;;;;;;;30.50;25.00;;;;;;;;5054526;28;24966;-77
2021/10/09 10:45:45;;;;;;;;;34.00;27.75;;;;;;;;5050135;28;16946;-76
2021/10/09 10:48:30;;;;;;;;;34.00;29.50;;;;;;;;5051579;28;8796;-76
2021/10/09 10:53:32;;;;;;;;;36.33;31.00;;;;;;;;5047600;28;16967;-77
2021/10/09 10:56:07;;;;;;;;;30.25;25.75;;;;;;;;5047400;28;11533;-77
2021/10/09 10:58:33;;;;;;;;;35.00;23.00;;;;;;;;5055357;28;15912;-79
2021/10/09 11:01:17;;;;;;;;;29.50;24.00;;;;;;;;5047792;28;17364;-77
2021/10/09 11:03:49;;;;;;;;;26.50;24.75;;;;;;;;5054388;28;20975;-77
2021/10/09 11:06:18;;;;;;;;;24.00;19.75;;;;;;;;5061603;28;8812;-75
2021/10/09 11:08:47;;;;;;;;;26.00;22.25;;;;;;;;5057972;28;19875;-76
2021/10/09 11:11:12;;;;;;;;;27.50;21.75;;;;;;;;5056909;28;15749;-77
2021/10/09 11:13:41;;;;;;;;;30.50;23.50;;;;;;;;5057308;28;13122;-78
2021/10/09 11:16:06;;;;;;;;;23.00;22.00;;;;;;;;5050887;28;20557;-78
2021/10/09 11:18:51;;;;;;;;;23.00;20.75;;;;;;;;5056337;28;21356;-77
2021/10/09 11:21:17;;;;;;;;;26.50;23.00;;;;;;;;5052119;28;9122;-79
2021/10/09 11:23:50;;;;;;;;;27.50;22.25;;;;;;;;5056750;28;17015;-77
2021/10/09 11:26:15;;;;;;;;;24.75;20.75;;;;;;;;5053401;28;17576;-83
2021/10/09 11:28:41;;;;;;;;;21.00;20.75;;;;;;;;5056129;28;16223;-76
2021/10/09 11:31:06;;;;;;;;;28.00;22.25;;;;;;;;5046476;28;16943;-78
2021/10/09 11:33:31;;;;;;;;;27.75;23.50;;;;;;;;5046358;28;12484;-78
2021/10/09 11:36:00;;;;;;;;;24.75;22.75;;;;;;;;5050874;28;16093;-77
2021/10/09 11:38:28;;;;;;;;;29.75;25.00;;;;;;;;5051086;28;20015;-78
2021/10/09 11:40:56;;;;;;;;;23.00;20.25;;;;;;;;5058271;28;17194;-77
2021/10/09 11:43:46;;;;;;;;;26.25;22.50;;;;;;;;5055106;28;15766;-78
2021/10/09 11:47:04;;;;;;;;;24.00;22.25;;;;;;;;5048311;28;11724;-78
2021/10/09 11:57:28;;;;;;;;;21.50;18.50;;;;;;;;5063899;28;8788;-78
2021/10/09 11:59:53;;;;;;;;;36.50;27.25;;;;;;;;5049723;28;19046;-77
2021/10/09 12:02:31;;;;;;;;;31.00;23.00;;;;;;;;5054758;28;16454;-78
2021/10/09 12:04:57;;;;;;;;;25.50;20.75;;;;;;;;5053590;28;11520;-77
2021/10/09 12:07:22;;;;;;;;;29.00;23.75;;;;;;;;5048049;28;13778;-77
2021/10/09 12:09:58;;;;;;;;;24.00;21.25;;;;;;;;5049150;28;17462;-78
2021/10/09 12:12:25;;;;;;;;;27.00;22.75;;;;;;;;5050305;28;8826;-78
2021/10/09 12:14:51;;;;;;;;;25.25;18.75;;;;;;;;5045503;28;14223;-79
2021/10/09 12:17:17;;;;;;;;;28.75;20.75;;;;;;;;5056137;28;14390;-77
2021/10/09 12:19:43;;;;;;;;;20.00;17.75;;;;;;;;5047700;28;24993;-78
2021/10/09 12:22:12;;;;;;;;;25.25;22.50;;;;;;;;5047353;28;17586;-77
2021/10/09 12:24:49;;;;;;;;;25.50;22.75;;;;;;;;5060116;28;17136;-78
2021/10/09 12:27:16;;;;;;;;;25.25;21.25;;;;;;;;5061016;28;8796;-79
2021/10/09 12:29:56;;;;;;;;;18.50;18.00;;;;;;;;5048244;28;17692;-78
2021/10/09 12:32:22;;;;;;;;;18.25;16.50;;;;;;;;5047042;28;18420;-79
2021/10/09 12:35:00;;;;;;;;;19.75;18.00;;;;;;;;5045827;28;24921;-79
2021/10/09 12:37:27;;;;;;;;;26.25;21.75;;;;;;;;5050908;28;16636;-82
2021/10/09 12:40:05;;;;;;;;;25.50;20.75;;;;;;;;5060147;28;16792;-78
2021/10/09 12:42:30;;;;;;;;;22.25;19.75;;;;;;;;5047032;28;23055;-79
2021/10/09 12:44:55;;;;;;;;;30.00;22.33;;;;;;;;5053922;28;9973;-76
2021/10/09 12:47:21;;;;;;;;;22.33;18.00;;;;;;;;5050158;28;26216;-78
2021/10/09 12:49:46;;;;;;;;;19.33;16.00;;;;;;;;5047437;28;16056;-76
2021/10/09 12:52:11;;;;;;;;;13.00;12.00;;;;;;;;5057690;28;17117;-76
2021/10/09 12:54:36;;;;;;;;;22.00;19.33;;;;;;;;5047531;28;18476;-77
2021/10/09 12:57:05;;;;;;;;;23.00;19.33;;;;;;;;5056591;28;10224;-77
2021/10/09 12:59:30;;;;;;;;;24.75;19.50;;;;;;;;5054098;28;15893;-77
2021/10/09 13:01:55;;;;;;;;;22.67;16.67;;;;;;;;5056081;28;25348;-78
2021/10/09 13:04:20;;;;;;;;;22.67;22.67;;;;;;;;5055278;28;16621;-77
2021/10/09 13:06:46;;;;;;;;;20.25;18.00;;;;;;;;5050556;28;15946;-80
2021/10/09 13:09:12;;;;;;;;;29.67;26.67;;;;;;;;5063219;28;8965;-78
2021/10/09 13:11:46;;;;;;;;;19.75;16.25;;;;;;;;5045570;28;16155;-77
2021/10/09 13:14:11;;;;;;;;;23.75;21.00;;;;;;;;5054339;28;22642;-79
2021/10/09 13:16:36;;;;;;;;;20.00;16.33;;;;;;;;5059931;28;17917;-76
2021/10/09 13:19:02;;;;;;;;;17.00;16.00;;;;;;;;5058240;28;15820;-79
2021/10/09 13:21:27;;;;;;;;;22.50;21.00;;;;;;;;5063204;28;11523;-80
2021/10/09 13:23:52;;;;;;;;;24.67;21.33;;;;;;;;5048980;28;16526;-77
2021/10/09 13:26:17;;;;;;;;;20.67;19.33;;;;;;;;5044475;28;15364;-79
2021/10/09 13:28:43;;;;;;;;;26.67;21.67;;;;;;;;5049438;28;12006;-78
2021/10/09 13:31:08;;;;;;;;;20.33;20.33;;;;;;;;5052636;28;17873;-77
2021/10/09 13:33:33;;;;;;;;;19.50;18.75;;;;;;;;5046595;28;17760;-77
2021/10/09 13:35:58;;;;;;;;;26.75;20.25;;;;;;;;5060105;28;8816;-80
2021/10/09 13:38:29;;;;;;;;;18.75;18.00;;;;;;;;5053101;28;16497;-78
2021/10/09 13:40:54;;;;;;;;;23.75;18.75;;;;;;;;5051659;28;9447;-79
2021/10/09 13:43:20;;;;;;;;;24.75;19.50;;;;;;;;5047688;28;17956;-77
2021/10/09 13:45:45;;;;;;;;;20.67;16.33;;;;;;;;5059556;28;25889;-77
2021/10/09 13:48:11;;;;;;;;;22.25;18.75;;;;;;;;5056731;28;11538;-77
2021/10/09 13:50:41;;;;;;;;;18.50;17.50;;;;;;;;5055390;28;16783;-77
2021/10/09 13:53:06;;;;;;;;;19.50;18.00;;;;;;;;5056263;28;17275;-77
2021/10/09 13:55:31;;;;;;;;;28.67;19.00;;;;;;;;5048841;28;26040;-79
2021/10/09 13:57:57;;;;;;;;;22.67;19.00;;;;;;;;5046673;28;11104;-78
2021/10/09 14:00:22;;;;;;;;;24.25;21.50;;;;;;;;5053769;28;10470;-78
2021/10/09 14:02:47;;;;;;;;;21.67;20.00;;;;;;;;5054256;28;17039;-77
2021/10/09 14:05:13;;;;;;;;;21.00;17.33;;;;;;;;5055375;28;17059;-78
2021/10/09 14:07:38;;;;;;;;;20.00;19.00;;;;;;;;5051753;28;17981;-78
2021/10/09 14:10:03;;;;;;;;;24.33;17.67;;;;;;;;5050777;28;17034;-77
2021/10/09 14:12:28;;;;;;;;;20.75;18.25;;;;;;;;5066674;28;10373;-78
2021/10/09 14:14:53;;;;;;;;;24.67;21.00;;;;;;;;5054699;28;18045;-78
2021/10/09 14:17:19;;;;;;;;;22.00;21.33;;;;;;;;5055510;28;11583;-77
2021/10/09 14:19:44;;;;;;;;;22.67;20.00;;;;;;;;5047151;28;17087;-78
2021/10/09 14:22:09;;;;;;;;;23.67;20.00;;;;;;;;5050851;28;18643;-78
2021/10/09 14:24:34;;;;;;;;;22.00;19.00;;;;;;;;5049595;28;17703;-78
2021/10/09 14:26:59;;;;;;;;;15.67;11.00;;;;;;;;5062893;28;16188;-79
2021/10/09 14:29:25;;;;;;;;;18.67;18.00;;;;;;;;5057178;28;17422;-77
2021/10/09 14:31:50;;;;;;;;;21.00;17.67;;;;;;;;5056708;28;16266;-78
2021/10/09 14:34:15;;;;;;;;;19.25;18.50;;;;;;;;5048186;28;14093;-78
2021/10/09 14:36:40;;;;;;;;;27.25;21.50;;;;;;;;5053352;28;16432;-79
2021/10/09 14:39:06;;;;;;;;;17.33;16.67;;;;;;;;5055231;28;8808;-78
2021/10/09 14:41:31;;;;;;;;;20.50;18.00;;;;;;;;5055138;28;17670;-80
2021/10/09 14:43:56;;;;;;;;;19.00;16.00;;;;;;;;5053512;28;23013;-80
2021/10/09 14:48:59;;;;;;;;;19.25;16.00;;;;;;;;5048638;28;16130;-78
2021/10/09 14:54:20;;;;;;;;;21.00;18.75;;;;;;;;5055669;28;17675;-78
2021/10/09 15:02:31;;;;;;;;;20.50;20.50;;;;;;;;5056503;28;17893;-78
2021/10/09 15:18:38;;;;;;;;;18.00;16.75;;;;;;;;5022497;28;18292;-78
2021/10/09 15:21:03;;;;;;;;;18.33;16.67;;;;;;;;5020584;28;8930;-78
2021/10/09 15:23:29;;;;;;;;;18.67;14.00;;;;;;;;5018625;28;16447;-77
2021/10/09 15:25:54;;;;;;;;;20.50;18.00;;;;;;;;5017918;28;17340;-79
2021/10/09 15:28:19;;;;;;;;;22.50;18.25;;;;;;;;5021861;28;19716;-79
2021/10/09 15:30:45;;;;;;;;;22.75;19.00;;;;;;;;5262399;22;14683;-79
2021/10/09 15:33:10;;;;;;;;;20.00;17.00;;;;;;;;5011221;28;9392;-80
2021/10/09 15:35:36;;;;;;;;;18.25;15.75;;;;;;;;5010265;28;13412;-79
2021/10/09 15:38:02;;;;;;;;;18.50;15.25;;;;;;;;5009904;28;15979;-78
2021/10/09 15:40:27;;;;;;;;;21.25;17.75;;;;;;;;5009710;28;13516;-78
2021/10/09 15:42:52;;;;;;;;;20.75;19.00;;;;;;;;5009819;28;13937;-76
2021/10/09 15:45:19;;;;;;;;;16.75;15.00;;;;;;;;5011387;28;8833;-76
2021/10/09 15:47:48;;;;;;;;;25.50;17.00;;;;;;;;5007359;28;20332;-76
2021/10/09 15:50:13;;;;;;;;;21.75;15.50;;;;;;;;5010592;28;11135;-76
2021/10/09 15:52:39;;;;;;;;;22.75;20.00;;;;;;;;5006116;28;25440;-76
2021/10/09 15:55:04;;;;;;;;;27.50;19.50;;;;;;;;5021985;28;9865;-76
2021/10/09 15:57:29;;;;;;;;;20.25;17.00;;;;;;;;5012956;28;8833;-77
2021/10/09 15:59:55;;;;;;;;;22.25;19.25;;;;;;;;5006115;28;11871;-77
2021/10/09 16:02:20;;;;;;;;;21.33;19.00;;;;;;;;5012521;28;16883;-76
2021/10/09 16:04:46;;;;;;;;;20.00;19.00;;;;;;;;5011668;28;17458;-76
2021/10/09 16:07:11;;;;;;;;;20.75;19.00;;;;;;;;5003927;28;17323;-76
2021/10/09 16:09:37;;;;;;;;;19.50;16.75;;;;;;;;5026174;28;20078;-77
2021/10/09 16:12:02;;;;;;;;;30.00;17.33;;;;;;;;5029427;28;17030;-76
2021/10/09 16:14:27;;;;;;;;;20.50;19.50;;;;;;;;5022915;28;19188;-76
2021/10/09 16:16:52;;;;;;;;;26.67;25.67;;;;;;;;5017022;28;16282;-77
2021/10/09 16:19:17;;;;;;;;;31.67;27.67;;;;;;;;5006776;28;20814;-76
2021/10/09 16:21:43;;;;;;;;;23.67;21.00;;;;;;;;5017503;28;16031;-76
2021/10/09 16:24:09;;;;;;;;;24.50;20.50;;;;;;;;5013822;28;11575;-76
2021/10/09 16:26:34;;;;;;;;;26.67;21.67;;;;;;;;5010698;28;15195;-76
2021/10/09 16:28:59;;;;;;;;;27.75;23.50;;;;;;;;5007201;28;18973;-76
2021/10/09 16:31:24;;;;;;;;;30.75;25.75;;;;;;;;5010628;28;15875;-78
2021/10/09 16:33:52;;;;;;;;;75.33;56.33;;;;;;;;5007514;28;16306;-76
2021/10/09 16:36:17;;;;;;;;;56.25;42.00;;;;;;;;5022683;28;9221;-77
2021/10/09 16:38:42;;;;;;;;;34.00;28.67;;;;;;;;5009175;28;15748;-77
2021/10/09 16:41:07;;;;;;;;;28.25;25.75;;;;;;;;5007117;28;16913;-78
2021/10/09 16:43:33;;;;;;;;;28.00;24.00;;;;;;;;5015689;28;20529;-76
2021/10/09 16:45:58;;;;;;;;;29.67;25.00;;;;;;;;5007582;28;16872;-76
2021/10/09 16:48:23;;;;;;;;;24.25;20.75;;;;;;;;5011361;28;10549;-77
2021/10/09 16:50:48;;;;;;;;;22.00;20.33;;;;;;;;5017239;28;12469;-76
2021/10/09 16:53:13;;;;;;;;;28.00;23.67;;;;;;;;5015890;28;13082;-77
2021/10/09 16:55:39;;;;;;;;;25.67;20.33;;;;;;;;5020680;28;16676;-76
2021/10/09 16:58:04;;;;;;;;;27.75;21.00;;;;;;;;5010276;28;18256;-77
2021/10/09 17:00:29;;;;;;;;;28.00;22.67;;;;;;;;5013445;28;8849;-76
2021/10/09 17:02:54;;;;;;;;;26.00;24.50;;;;;;;;5013084;28;16914;-76